createdAt,value
2024-03-03T00:00:48.081Z,5.03
2024-03-03T00:03:16.058Z,4.97
2024-03-03T00:05:47.390Z,5.53
2024-03-03T00:08:18.567Z,6.05
2024-03-03T00:10:46.184Z,5.45
2024-03-03T00:13:13.958Z,5.95
2024-03-03T00:15:41.582Z,5.72
2024-03-03T00:18:09.320Z,5.57
2024-03-03T00:20:37.167Z,5.82
2024-03-03T00:23:04.889Z,6.05
2024-03-03T00:25:33.989Z,6.90
2024-03-03T00:28:01.705Z,6.10
2024-03-03T00:30:32.055Z,5.97
2024-03-03T00:32:59.629Z,6.63
2024-03-03T00:35:28.546Z,6.45
2024-03-03T00:37:56.275Z,6.68
2024-03-03T00:40:24.068Z,7.40
2024-03-03T00:42:55.847Z,6.82
2024-03-03T00:45:23.513Z,7.32
2024-03-03T00:47:51.295Z,7.32
2024-03-03T00:50:19.111Z,6.78
2024-03-03T00:52:45.779Z,6.70
2024-03-03T00:55:13.494Z,6.93
2024-03-03T00:57:41.190Z,7.55
2024-03-03T01:00:10.996Z,7.72
2024-03-03T01:02:38.880Z,7.80
2024-03-03T01:05:07.284Z,8.02
2024-03-03T01:07:35.103Z,7.78
2024-03-03T01:10:02.999Z,8.63
2024-03-03T01:12:31.864Z,7.80
2024-03-03T01:15:02.294Z,8.18
2024-03-03T01:17:31.280Z,8.00
2024-03-03T01:19:59.322Z,7.60
2024-03-03T01:22:27.277Z,8.02
2024-03-03T01:24:55.210Z,8.07
2024-03-03T01:27:23.110Z,7.80
2024-03-03T01:29:53.512Z,7.50
2024-03-03T01:32:26.341Z,8.07
2024-03-03T01:34:55.439Z,7.53
2024-03-03T01:37:23.300Z,7.10
2024-03-03T01:39:54.013Z,7.57
2024-03-03T01:42:22.990Z,7.38
2024-03-03T01:44:50.720Z,7.35
2024-03-03T01:47:18.635Z,6.55
2024-03-03T01:49:48.999Z,7.15
2024-03-03T01:52:21.095Z,7.10
2024-03-03T01:54:51.377Z,8.32
2024-03-03T01:57:21.177Z,7.75
2024-03-03T01:59:49.048Z,7.13
2024-03-03T02:02:17.028Z,6.60
2024-03-03T02:04:44.707Z,6.25
2024-03-03T02:07:13.554Z,7.15
2024-03-03T02:09:44.178Z,7.72
2024-03-03T02:12:12.388Z,7.38
2024-03-03T02:14:40.623Z,7.32
2024-03-03T02:17:08.286Z,6.68
2024-03-03T02:19:39.014Z,6.60
2024-03-03T02:22:08.238Z,6.55
2024-03-03T02:24:36.387Z,6.47
2024-03-03T02:27:06.030Z,6.53
2024-03-03T02:29:36.814Z,6.97
2024-03-03T02:32:06.840Z,6.70
2024-03-03T02:34:34.679Z,7.07
2024-03-03T02:37:02.652Z,6.57
2024-03-03T02:39:32.001Z,6.80
2024-03-03T02:41:59.590Z,6.65
2024-03-03T02:44:30.413Z,6.65
2024-03-03T02:46:58.191Z,6.85
2024-03-03T02:49:25.969Z,6.32
2024-03-03T02:51:56.021Z,6.65
2024-03-03T02:54:23.885Z,6.63
2024-03-03T02:56:53.111Z,6.72
2024-03-03T02:59:25.571Z,6.50
2024-03-03T03:01:53.757Z,7.10
2024-03-03T03:04:21.870Z,6.68
2024-03-03T03:06:49.696Z,7.10
2024-03-03T03:09:17.504Z,7.20
2024-03-03T03:11:45.809Z,6.78
2024-03-03T03:14:17.845Z,6.10
2024-03-03T03:16:49.828Z,6.72
2024-03-03T03:19:18.950Z,6.18
2024-03-03T03:21:46.917Z,7.28
2024-03-03T03:24:16.911Z,6.95
2024-03-03T03:26:44.840Z,7.13
2024-03-03T03:29:12.675Z,6.65
2024-03-03T03:31:41.819Z,5.78
2024-03-03T03:34:09.716Z,6.25
2024-03-03T03:36:37.395Z,6.45
2024-03-03T03:39:11.309Z,6.10
2024-03-03T03:41:44.366Z,6.00
2024-03-03T03:44:13.496Z,7.30
2024-03-03T03:46:42.638Z,6.80
2024-03-03T03:49:11.027Z,7.68
2024-03-03T03:51:38.998Z,6.30
2024-03-03T03:54:06.783Z,6.95
2024-03-03T03:56:34.765Z,6.80
2024-03-03T03:59:02.863Z,6.68
2024-03-03T04:01:30.819Z,7.82
2024-03-03T04:04:00.434Z,7.72
2024-03-03T04:06:28.793Z,8.23
2024-03-03T04:08:57.004Z,8.25
2024-03-03T04:11:25.003Z,8.85
2024-03-03T04:13:54.138Z,7.75
2024-03-03T04:16:22.048Z,9.18
2024-03-03T04:18:50.085Z,8.82
2024-03-03T04:21:19.392Z,6.95
2024-03-03T04:23:47.475Z,9.50
2024-03-03T04:26:18.159Z,9.77
2024-03-03T04:28:46.747Z,9.60
2024-03-03T04:31:14.730Z,8.77
2024-03-03T04:33:45.321Z,9.10
2024-03-03T04:36:13.514Z,9.63
2024-03-03T04:38:43.555Z,9.80
2024-03-03T04:41:17.703Z,9.85
2024-03-03T04:43:46.678Z,9.00
2024-03-03T04:46:14.993Z,9.57
2024-03-03T04:48:43.148Z,9.38
2024-03-03T04:51:13.203Z,8.85
2024-03-03T04:53:42.713Z,10.45
2024-03-03T04:56:10.559Z,11.20
2024-03-03T04:58:40.847Z,10.23
2024-03-03T05:01:08.861Z,10.43
2024-03-03T05:03:36.725Z,9.90
2024-03-03T05:06:04.556Z,10.20
2024-03-03T05:08:32.198Z,10.30
2024-03-03T05:11:01.916Z,10.20
2024-03-03T05:13:29.744Z,9.65
2024-03-03T05:15:57.475Z,10.05
2024-03-03T05:18:25.177Z,10.40
2024-03-03T05:20:52.929Z,11.63
2024-03-03T05:23:22.223Z,12.02
2024-03-03T05:25:49.838Z,11.27
2024-03-03T05:28:19.090Z,11.15
2024-03-03T05:30:46.864Z,11.00
2024-03-03T05:33:14.844Z,10.75
2024-03-03T05:35:43.300Z,11.57
2024-03-03T05:38:11.087Z,10.95
2024-03-03T05:40:38.851Z,11.52
2024-03-03T05:43:08.990Z,11.98
2024-03-03T05:45:43.300Z,11.55
2024-03-03T05:48:11.627Z,11.93
2024-03-03T05:50:39.232Z,11.93
2024-03-03T05:53:07.419Z,12.10
2024-03-03T05:55:38.272Z,11.35
2024-03-03T05:58:06.340Z,11.18
2024-03-03T06:00:36.955Z,12.40
2024-03-03T06:03:06.063Z,11.88
2024-03-03T06:05:33.809Z,12.23
2024-03-03T06:08:06.937Z,12.00
2024-03-03T06:10:36.504Z,11.25
2024-03-03T06:13:06.536Z,11.65
2024-03-03T06:15:36.970Z,12.15
2024-03-03T06:18:06.906Z,12.57
2024-03-03T06:20:35.163Z,12.60
2024-03-03T06:23:06.100Z,13.00
2024-03-03T06:25:38.139Z,12.82
2024-03-03T06:28:08.266Z,13.18
2024-03-03T06:30:35.885Z,13.25
2024-03-03T06:33:03.715Z,13.00
2024-03-03T06:35:36.676Z,12.13
2024-03-03T06:38:05.026Z,12.57
2024-03-03T06:40:33.822Z,13.52
2024-03-03T06:43:02.287Z,12.45
2024-03-03T06:45:30.255Z,11.57
2024-03-03T06:47:58.300Z,13.02
2024-03-03T06:50:29.380Z,13.00
2024-03-03T06:52:59.012Z,13.88
2024-03-03T06:55:30.053Z,11.27
2024-03-03T06:57:58.416Z,11.32
2024-03-03T07:00:29.109Z,12.65
2024-03-03T07:03:14.140Z,12.00
2024-03-03T07:05:43.122Z,11.45
2024-03-03T07:08:12.602Z,11.15
2024-03-03T07:10:42.519Z,11.55
2024-03-03T07:13:11.225Z,11.73
2024-03-03T07:15:40.981Z,10.80
2024-03-03T07:18:09.044Z,12.88
2024-03-03T07:20:36.846Z,12.10
2024-03-03T07:23:07.317Z,11.27
2024-03-03T07:25:36.743Z,11.27
2024-03-03T07:28:11.579Z,10.80
2024-03-03T07:30:42.755Z,11.57
2024-03-03T07:33:14.039Z,10.27
2024-03-03T07:35:44.167Z,11.02
2024-03-03T07:38:12.726Z,11.38
2024-03-03T07:40:42.595Z,11.70
2024-03-03T07:43:10.743Z,10.52
2024-03-03T07:45:38.821Z,11.27
2024-03-03T07:48:07.806Z,11.30
2024-03-03T07:50:35.791Z,10.80
2024-03-03T07:53:03.978Z,10.52
2024-03-03T07:55:34.007Z,10.52
2024-03-03T07:58:03.645Z,9.85
2024-03-03T08:00:36.021Z,10.88
2024-03-03T08:03:09.412Z,11.13
2024-03-03T08:05:40.413Z,11.35
2024-03-03T08:08:12.873Z,10.65
2024-03-03T08:10:43.443Z,11.15
2024-03-03T08:13:16.649Z,11.45
2024-03-03T08:15:44.541Z,11.65
2024-03-03T08:18:15.724Z,10.68
2024-03-03T08:21:04.059Z,10.93
2024-03-03T08:23:40.131Z,10.52
2024-03-03T08:26:08.146Z,11.20
2024-03-03T08:28:41.535Z,11.32
2024-03-03T08:31:10.286Z,10.73
2024-03-03T08:33:38.484Z,11.75
2024-03-03T08:36:08.103Z,11.50
2024-03-03T08:38:36.338Z,11.68
2024-03-03T08:41:04.888Z,11.30
2024-03-03T08:43:32.744Z,10.80
2024-03-03T08:46:02.154Z,11.07
2024-03-03T08:48:29.960Z,11.63
2024-03-03T08:50:59.966Z,9.98
2024-03-03T08:53:27.917Z,11.02
2024-03-03T08:55:55.644Z,10.38
2024-03-03T08:58:23.371Z,10.48
2024-03-03T09:00:52.577Z,11.05
2024-03-03T09:03:26.222Z,10.43
2024-03-03T09:05:56.701Z,10.57
2024-03-03T09:08:24.436Z,10.57
2024-03-03T09:10:57.785Z,10.52
2024-03-03T09:13:27.707Z,10.77
2024-03-03T09:15:55.680Z,10.50
2024-03-03T09:18:25.266Z,11.10
2024-03-03T09:20:53.018Z,10.77
2024-03-03T09:23:20.727Z,11.43
2024-03-03T09:25:48.786Z,10.98
2024-03-03T09:28:17.263Z,10.68
2024-03-03T09:30:45.070Z,10.27
2024-03-03T09:33:13.120Z,10.05
2024-03-03T09:35:42.220Z,10.45
2024-03-03T09:38:10.177Z,11.40
2024-03-03T09:40:38.414Z,10.85
2024-03-03T09:43:08.090Z,11.48
2024-03-03T09:45:36.171Z,11.13
2024-03-03T09:48:05.121Z,10.15
2024-03-03T09:50:33.930Z,10.55
2024-03-03T09:53:04.084Z,10.55
2024-03-03T09:55:32.516Z,10.38
2024-03-03T09:58:00.986Z,11.07
2024-03-03T10:00:28.890Z,10.20
2024-03-03T10:02:57.605Z,10.85
2024-03-03T10:05:26.564Z,10.48
2024-03-03T10:07:54.890Z,11.65
2024-03-03T10:10:27.951Z,10.57
2024-03-03T10:12:57.214Z,9.68
2024-03-03T10:15:25.296Z,10.98
2024-03-03T10:17:53.135Z,10.40
2024-03-03T10:20:21.071Z,10.77
2024-03-03T10:22:51.338Z,11.07
2024-03-03T10:25:19.982Z,11.63
2024-03-03T10:27:50.117Z,10.98
2024-03-03T10:30:19.240Z,10.80
2024-03-03T10:32:48.981Z,10.25
2024-03-03T10:35:19.766Z,9.70
2024-03-03T10:37:54.159Z,10.80
2024-03-03T10:40:24.372Z,10.02
2024-03-03T10:42:53.875Z,9.90
2024-03-03T10:45:21.748Z,9.55
2024-03-03T10:47:50.589Z,10.02
2024-03-03T10:50:19.507Z,11.18
2024-03-03T10:52:47.645Z,11.45
2024-03-03T10:55:15.831Z,10.32
2024-03-03T10:57:46.875Z,11.20
2024-03-03T11:00:23.428Z,10.77
2024-03-03T11:02:52.021Z,10.48
2024-03-03T11:05:19.716Z,10.13
2024-03-03T11:07:48.628Z,10.70
2024-03-03T11:10:17.021Z,10.68
2024-03-03T11:12:46.163Z,10.15
2024-03-03T11:15:14.811Z,9.70
2024-03-03T11:17:47.060Z,11.25
2024-03-03T11:20:19.625Z,11.05
2024-03-03T11:22:52.159Z,10.80
2024-03-03T11:25:23.352Z,10.80
2024-03-03T11:27:56.376Z,10.85
2024-03-03T11:30:24.639Z,10.70
2024-03-03T11:32:54.165Z,10.90
2024-03-03T11:35:22.079Z,10.63
2024-03-03T11:37:51.427Z,11.25
2024-03-03T11:40:21.172Z,11.07
2024-03-03T11:42:49.605Z,11.00
2024-03-03T11:45:17.479Z,11.80
2024-03-03T11:47:49.197Z,11.07
2024-03-03T11:50:25.428Z,11.20
2024-03-03T11:52:53.734Z,10.77
2024-03-03T11:55:24.479Z,9.48
2024-03-03T11:57:54.080Z,8.75
2024-03-03T12:00:25.478Z,10.25
2024-03-03T12:02:54.346Z,9.35
2024-03-03T12:05:23.495Z,9.40
2024-03-03T12:07:51.873Z,9.50
2024-03-03T12:10:21.376Z,9.45
2024-03-03T12:12:52.234Z,8.68
2024-03-03T12:15:21.259Z,8.98
2024-03-03T12:17:55.883Z,9.43
2024-03-03T12:20:26.072Z,8.63
2024-03-03T12:22:54.110Z,8.75
2024-03-03T12:25:23.198Z,9.23
2024-03-03T12:27:54.733Z,8.38
2024-03-03T12:30:28.014Z,9.32
2024-03-03T12:32:58.169Z,8.10
2024-03-03T12:35:28.556Z,9.50
2024-03-03T12:37:56.734Z,9.02
2024-03-03T12:40:25.693Z,9.18
2024-03-03T12:42:53.707Z,8.93
2024-03-03T12:45:21.990Z,8.35
2024-03-03T12:47:50.726Z,9.10
2024-03-03T12:50:19.445Z,9.10
2024-03-03T12:52:49.579Z,8.05
2024-03-03T12:55:17.764Z,8.25
2024-03-03T12:57:46.235Z,8.43
2024-03-03T13:00:15.187Z,8.60
2024-03-03T13:02:44.623Z,8.15
2024-03-03T13:05:13.324Z,8.32
2024-03-03T13:07:49.032Z,8.15
2024-03-03T13:10:17.492Z,8.98
2024-03-03T13:12:45.635Z,8.93
2024-03-03T13:15:13.700Z,8.50
2024-03-03T13:17:41.603Z,8.10
2024-03-03T13:20:13.576Z,8.35
2024-03-03T13:22:42.084Z,8.27
2024-03-03T13:25:11.468Z,8.25
2024-03-03T13:27:39.379Z,8.70
2024-03-03T13:30:15.022Z,7.82
2024-03-03T13:32:49.118Z,8.65
2024-03-03T13:35:16.819Z,8.13
2024-03-03T13:37:44.680Z,9.55
2024-03-03T13:40:14.715Z,9.05
2024-03-03T13:42:42.517Z,9.35
2024-03-03T13:45:11.877Z,9.43
2024-03-03T13:47:39.909Z,8.77
2024-03-03T13:50:09.439Z,8.13
2024-03-03T13:52:38.034Z,8.98
2024-03-03T13:55:11.769Z,9.27
2024-03-03T13:57:42.464Z,9.20
2024-03-03T14:00:16.172Z,9.57
2024-03-03T14:02:45.505Z,9.70
2024-03-03T14:05:16.738Z,8.70
2024-03-03T14:07:48.216Z,8.60
2024-03-03T14:10:18.131Z,8.82
2024-03-03T14:12:48.180Z,8.80
2024-03-03T14:15:16.687Z,9.70
2024-03-03T14:17:45.069Z,8.75
2024-03-03T14:20:15.034Z,8.25
2024-03-03T14:22:49.846Z,8.32
2024-03-03T14:28:01.734Z,8.68
2024-03-03T14:30:39.666Z,7.75
2024-03-03T14:33:10.589Z,7.75
2024-03-03T14:35:39.876Z,8.13
2024-03-03T14:38:13.318Z,7.70
2024-03-03T14:40:44.151Z,7.03
2024-03-03T14:43:14.187Z,7.30
2024-03-03T14:45:46.719Z,7.22
2024-03-03T14:48:14.921Z,6.60
2024-03-03T14:50:45.643Z,6.78
2024-03-03T14:53:13.880Z,7.60
2024-03-03T14:55:42.237Z,8.75
2024-03-03T14:58:11.004Z,8.90
2024-03-03T15:00:40.618Z,8.60
2024-03-03T15:03:09.665Z,9.88
2024-03-03T15:05:40.746Z,7.85
2024-03-03T15:08:11.669Z,8.13
2024-03-03T15:10:42.778Z,8.10
2024-03-03T15:13:11.108Z,8.32
2024-03-03T15:15:41.547Z,8.05
2024-03-03T15:18:09.733Z,9.25
2024-03-03T15:20:39.407Z,8.45
2024-03-03T15:23:11.270Z,8.63
2024-03-03T15:25:39.633Z,8.40
2024-03-03T15:28:09.204Z,8.25
2024-03-03T15:30:39.383Z,8.23
2024-03-03T15:33:11.456Z,7.63
2024-03-03T15:35:44.858Z,9.00
2024-03-03T15:38:17.087Z,8.40
2024-03-03T15:40:45.306Z,8.70
2024-03-03T15:43:23.770Z,7.82
2024-03-03T15:45:52.950Z,7.25
2024-03-03T15:48:22.247Z,7.00
2024-03-03T15:50:50.062Z,6.32
2024-03-03T15:53:18.064Z,6.60
2024-03-03T15:55:45.810Z,5.72
2024-03-03T15:58:13.730Z,4.93
2024-03-03T16:00:41.608Z,5.13
2024-03-03T16:03:09.707Z,5.25
2024-03-03T16:05:38.771Z,4.43
2024-03-03T16:08:08.624Z,4.70
2024-03-03T16:10:36.520Z,4.32
2024-03-03T16:13:05.829Z,4.47
2024-03-03T16:15:33.785Z,4.70
2024-03-03T16:18:04.822Z,4.88
2024-03-03T16:20:32.771Z,4.40
2024-03-03T16:23:02.124Z,5.13
2024-03-03T16:25:30.203Z,4.95
2024-03-03T16:28:08.274Z,5.55
2024-03-03T16:30:43.903Z,5.90
2024-03-03T16:33:14.578Z,6.22
2024-03-03T16:35:45.493Z,5.93
2024-03-03T16:38:17.525Z,6.32
2024-03-03T16:40:45.895Z,6.80
2024-03-03T16:43:24.061Z,6.30
2024-03-03T16:45:52.983Z,7.20
2024-03-03T16:48:23.406Z,6.65
2024-03-03T16:50:54.470Z,6.18
2024-03-03T16:53:33.809Z,6.25
2024-03-03T16:56:09.198Z,6.82
2024-03-03T16:58:39.161Z,6.85
2024-03-03T17:01:15.183Z,6.22
2024-03-03T17:03:52.997Z,6.22
2024-03-03T17:06:21.894Z,6.60
2024-03-03T17:08:55.178Z,6.40
2024-03-03T17:11:27.858Z,6.63
2024-03-03T17:14:11.557Z,6.45
2024-03-03T17:16:46.639Z,5.70
2024-03-03T17:19:27.278Z,6.80
2024-03-03T17:21:59.023Z,7.10
2024-03-03T17:24:28.984Z,7.60
2024-03-03T17:27:01.263Z,7.65
2024-03-03T17:29:31.124Z,7.18
2024-03-03T17:32:03.663Z,7.60
2024-03-03T17:34:38.449Z,7.45
2024-03-03T17:37:09.855Z,7.78
2024-03-03T17:39:39.461Z,8.65
2024-03-03T17:42:08.918Z,8.82
2024-03-03T17:44:37.132Z,7.70
2024-03-03T17:47:06.726Z,8.23
2024-03-03T17:49:35.258Z,8.65
2024-03-03T17:52:03.828Z,8.23
2024-03-03T17:54:32.063Z,9.25
2024-03-03T17:57:03.490Z,9.18
2024-03-03T17:59:39.538Z,8.50
2024-03-03T18:02:10.433Z,9.02
2024-03-03T18:04:52.489Z,8.77
2024-03-03T18:07:27.132Z,8.80
2024-03-03T18:12:26.976Z,9.10
2024-03-03T18:14:56.983Z,8.48
2024-03-03T18:17:31.283Z,8.85
2024-03-03T18:20:02.815Z,9.45
2024-03-03T18:22:32.779Z,8.43
2024-03-03T18:25:03.224Z,9.23
2024-03-03T18:27:33.628Z,8.90
2024-03-03T18:30:06.976Z,9.98
2024-03-03T18:32:44.888Z,8.27
2024-03-03T18:35:15.649Z,8.63
2024-03-03T18:37:44.842Z,8.85
2024-03-03T18:40:17.591Z,9.02
2024-03-03T18:42:49.506Z,9.05
2024-03-03T18:45:20.584Z,10.70
2024-03-03T18:47:58.047Z,12.45
2024-03-03T18:50:26.451Z,11.48
2024-03-03T18:53:00.200Z,11.15
2024-03-03T18:55:29.470Z,13.75
2024-03-03T18:57:58.938Z,10.73
2024-03-03T19:00:29.339Z,10.70
2024-03-03T19:02:57.941Z,11.25
2024-03-03T19:05:28.142Z,11.52
2024-03-03T19:08:01.756Z,9.23
2024-03-03T19:10:31.065Z,8.63
2024-03-03T19:13:05.958Z,8.82
2024-03-03T19:15:35.353Z,9.50
2024-03-03T19:18:06.745Z,8.93
2024-03-03T19:20:35.239Z,8.15
2024-03-03T19:23:03.171Z,8.50
2024-03-03T19:25:37.396Z,8.82
2024-03-03T19:28:10.889Z,8.52
2024-03-03T19:30:39.198Z,8.60
2024-03-03T19:33:07.997Z,8.43
2024-03-03T19:35:38.050Z,9.15
2024-03-03T19:38:05.922Z,6.55
2024-03-03T19:40:37.114Z,6.40
2024-03-03T19:43:09.149Z,5.40
2024-03-03T19:45:38.435Z,5.35
2024-03-03T19:48:07.342Z,4.82
2024-03-03T19:50:35.934Z,4.97
2024-03-03T19:53:03.940Z,3.50
2024-03-03T19:55:34.401Z,3.50
2024-03-03T19:58:03.449Z,3.20
2024-03-03T20:00:36.559Z,3.60
2024-03-03T20:03:07.497Z,3.40
2024-03-03T20:05:36.546Z,3.65
2024-03-03T20:08:09.502Z,2.97
2024-03-03T20:10:38.683Z,3.97
2024-03-03T20:13:09.826Z,3.78
2024-03-03T20:15:42.807Z,4.22
2024-03-03T20:18:17.153Z,6.25
2024-03-03T20:20:51.865Z,8.30
2024-03-03T20:23:29.281Z,10.68
2024-03-03T20:26:01.080Z,10.38
2024-03-03T20:28:29.382Z,14.52
2024-03-03T20:31:04.275Z,15.30
2024-03-03T20:33:32.106Z,20.35
2024-03-03T20:36:00.673Z,22.02
2024-03-03T20:38:39.971Z,21.73
2024-03-03T20:41:10.981Z,24.48
2024-03-03T20:43:41.653Z,25.02
2024-03-03T20:46:11.532Z,28.67
2024-03-03T20:48:39.678Z,30.23
2024-03-03T20:51:11.380Z,32.45
2024-03-03T20:53:40.769Z,33.22
2024-03-03T20:56:09.507Z,33.20
2024-03-03T20:58:37.824Z,31.17
2024-03-03T21:01:07.879Z,32.22
2024-03-03T21:03:40.206Z,35.50
2024-03-03T21:06:08.488Z,27.95
2024-03-03T21:08:37.908Z,27.42
2024-03-03T21:11:07.281Z,32.95
2024-03-03T21:13:35.652Z,37.05
2024-03-03T21:16:04.919Z,29.40
2024-03-03T21:18:34.869Z,36.20
2024-03-03T21:21:07.023Z,30.83
2024-03-03T21:23:35.658Z,32.22
2024-03-03T21:26:05.821Z,29.70
2024-03-03T21:28:36.264Z,33.38
2024-03-03T21:31:07.311Z,32.33
2024-03-03T21:33:35.853Z,35.10
2024-03-03T21:36:07.986Z,34.50
2024-03-03T21:38:36.969Z,32.00
2024-03-03T21:41:07.023Z,24.15
2024-03-03T21:43:36.058Z,35.47
2024-03-03T21:46:05.051Z,32.20
2024-03-03T21:48:38.097Z,30.85
2024-03-03T21:51:07.587Z,35.15
2024-03-03T21:53:38.025Z,28.55
2024-03-03T21:56:07.947Z,31.88
2024-03-03T21:58:43.257Z,33.90
2024-03-03T22:01:13.533Z,33.35
2024-03-03T22:03:45.219Z,31.65
2024-03-03T22:06:15.026Z,32.40
2024-03-03T22:08:43.027Z,30.08
2024-03-03T22:11:10.767Z,29.00
2024-03-03T22:13:41.505Z,33.65
2024-03-03T22:16:09.857Z,31.20
2024-03-03T22:18:40.892Z,31.63
2024-03-03T22:21:09.844Z,29.33
2024-03-03T22:23:40.394Z,32.22
2024-03-03T22:26:14.957Z,31.27
2024-03-03T22:28:43.454Z,31.20
2024-03-03T22:31:14.213Z,27.02
2024-03-03T22:33:42.040Z,26.33
2024-03-03T22:36:16.086Z,28.73
2024-03-03T22:38:48.890Z,29.40
2024-03-03T22:41:17.474Z,28.25
2024-03-03T22:43:48.295Z,29.75
2024-03-03T22:46:17.818Z,28.80
2024-03-03T22:48:47.605Z,28.23
2024-03-03T22:51:16.469Z,25.58
2024-03-03T22:53:48.580Z,21.42
2024-03-03T22:56:17.834Z,23.42
2024-03-03T22:58:45.942Z,23.77
2024-03-03T23:01:13.942Z,21.33
2024-03-03T23:03:41.690Z,21.95
2024-03-03T23:06:13.286Z,21.95
2024-03-03T23:08:43.832Z,21.40
2024-03-03T23:11:13.373Z,22.23
2024-03-03T23:13:41.539Z,20.13
2024-03-03T23:16:09.425Z,23.10
2024-03-03T23:18:37.725Z,21.75
2024-03-03T23:21:08.539Z,20.50
2024-03-03T23:23:36.460Z,20.50
2024-03-03T23:26:10.299Z,21.65
2024-03-03T23:28:41.122Z,19.80
2024-03-03T23:31:09.300Z,21.13
2024-03-03T23:33:37.389Z,22.60
2024-03-03T23:36:05.553Z,20.85
2024-03-03T23:38:33.768Z,20.45
2024-03-03T23:41:04.843Z,22.15
2024-03-03T23:43:33.006Z,20.80
2024-03-03T23:46:04.993Z,21.15
2024-03-03T23:48:33.388Z,21.02
2024-03-03T23:51:01.733Z,23.38
2024-03-03T23:53:29.712Z,23.38
2024-03-03T23:55:57.827Z,24.20
2024-03-03T23:58:26.130Z,24.02
